Time;durP1;ratioP1;P1;durP2;ratioP2;P2;SDS_P1;SDS_P2;PMS_P1;PMS_P2;Temp;Humidity;BMP_temperature;BMP_pressure;BME280_temperature;BME280_humidity;BME280_pressure;Samples;Min_cycle;Max_cycle;Signal;HPM_P1;HPM_P2
2021/01/31 00:01:08;;;;;;;71.22;38.40;;;;;;;-2.26;99.87;97685.47;1731053;82;21126;-48
2021/01/31 00:03:36;;;;;;;76.42;40.90;;;;;;;-2.24;99.93;97687.59;1733320;82;22385;-47
2021/01/31 00:09:11;;;;;;;87.08;44.93;;;;;;;-2.23;99.70;97702.55;1784851;78;22677;-49
2021/01/31 00:11:40;;;;;;;84.00;43.90;;;;;;;-2.30;99.64;97711.55;1738447;80;21606;-48
2021/01/31 00:14:08;;;;;;;80.32;42.05;;;;;;;-2.34;99.60;97704.66;1733948;80;21380;-47
2021/01/31 00:16:36;;;;;;;90.47;45.92;;;;;;;-2.38;99.63;97675.31;1735902;80;21014;-48
2021/01/31 00:19:05;;;;;;;77.78;41.68;;;;;;;-2.39;99.73;97624.77;1736022;80;21570;-48
2021/01/31 00:21:32;;;;;;;74.45;41.35;;;;;;;-2.39;99.86;97628.73;1738958;80;20976;-49
2021/01/31 00:24:00;;;;;;;71.20;37.78;;;;;;;-2.37;99.87;97663.38;1736316;80;21491;-49
2021/01/31 00:26:28;;;;;;;62.93;35.68;;;;;;;-2.36;99.75;97668.20;1734753;80;21434;-47
2021/01/31 00:28:56;;;;;;;65.40;36.38;;;;;;;-2.39;99.38;97667.86;1737069;80;20958;-48
2021/01/31 00:31:26;;;;;;;64.62;36.63;;;;;;;-2.41;99.10;97692.55;1738039;80;20975;-48
2021/01/31 00:33:54;;;;;;;61.65;34.70;;;;;;;-2.41;99.13;97688.13;1735112;80;21582;-49
2021/01/31 00:36:22;;;;;;;68.40;36.60;;;;;;;-2.43;98.98;97689.11;1734250;80;21132;-48
2021/01/31 00:38:50;;;;;;;64.40;36.40;;;;;;;-2.44;98.95;97697.95;1736155;80;22131;-49
2021/01/31 00:41:18;;;;;;;65.28;35.88;;;;;;;-2.46;98.82;97707.66;1735798;80;21573;-48
2021/01/31 00:43:46;;;;;;;62.48;35.38;;;;;;;-2.48;98.76;97714.78;1735264;80;21115;-49
2021/01/31 00:46:14;;;;;;;65.62;36.23;;;;;;;-2.50;98.73;97716.61;1735333;80;21106;-48
2021/01/31 00:48:42;;;;;;;68.52;36.93;;;;;;;-2.50;98.59;97715.30;1735374;80;21109;-49
2021/01/31 00:51:10;;;;;;;70.78;39.60;;;;;;;-2.49;98.64;97720.97;1736785;80;22236;-48
2021/01/31 00:53:38;;;;;;;72.53;39.13;;;;;;;-2.50;98.39;97728.48;1732503;80;21570;-48
2021/01/31 00:56:08;;;;;;;69.97;36.48;;;;;;;-2.53;98.15;97735.16;1735146;80;20998;-48
2021/01/31 00:58:38;;;;;;;77.20;38.30;;;;;;;-2.56;98.03;97733.46;1734803;80;21610;-48
2021/01/31 01:01:06;;;;;;;76.00;41.35;;;;;;;-2.59;98.00;97737.99;1735475;80;21104;-49
2021/01/31 01:03:34;;;;;;;78.40;41.80;;;;;;;-2.64;97.67;97738.98;1737643;80;21197;-49
2021/01/31 01:06:03;;;;;;;75.32;40.98;;;;;;;-2.69;97.54;97740.03;1737995;80;21165;-49
2021/01/31 01:08:31;;;;;;;69.77;36.98;;;;;;;-2.71;97.67;97744.05;1725060;80;21218;-47
2021/01/31 01:10:59;;;;;;;83.17;43.40;;;;;;;-2.73;97.44;97756.85;1726241;81;21160;-49
2021/01/31 01:13:28;;;;;;;72.62;39.58;;;;;;;-2.76;97.45;97754.32;1723963;81;20974;-48
2021/01/31 01:15:56;;;;;;;73.65;41.05;;;;;;;-2.80;97.45;97758.81;1721859;82;21388;-48
2021/01/31 01:18:24;;;;;;;70.62;36.45;;;;;;;-2.81;97.44;97767.64;1721379;81;21199;-48
2021/01/31 01:20:51;;;;;;;64.82;37.95;;;;;;;-2.84;97.19;97775.63;1717150;81;21183;-47
2021/01/31 01:23:19;;;;;;;61.35;35.45;;;;;;;-2.85;97.13;97771.27;1718959;81;21184;-48
2021/01/31 01:25:47;;;;;;;56.68;32.20;;;;;;;-2.86;96.82;97788.00;1724788;81;21105;-50
2021/01/31 01:28:15;;;;;;;52.55;29.07;;;;;;;-2.91;96.54;97791.22;1720023;81;21637;-48
2021/01/31 01:30:44;;;;;;;53.65;29.72;;;;;;;-2.97;96.24;97787.44;1718446;81;21140;-49
2021/01/31 01:33:12;;;;;;;51.50;28.02;;;;;;;-3.02;96.22;97780.11;1718083;81;21050;-49
2021/01/31 01:35:40;;;;;;;51.35;29.87;;;;;;;-3.03;96.34;97787.61;1717471;82;21570;-49
2021/01/31 01:38:08;;;;;;;41.40;25.60;;;;;;;-3.02;96.44;97776.16;1717957;81;21585;-48
2021/01/31 01:40:38;;;;;;;51.42;27.67;;;;;;;-2.98;96.54;97794.95;1718256;81;22289;-51
2021/01/31 01:43:09;;;;;;;46.40;26.75;;;;;;;-2.97;96.19;97808.53;1720031;81;21140;-48
2021/01/31 01:45:37;;;;;;;44.70;25.10;;;;;;;-2.98;96.06;97801.53;1697204;82;21676;-48
2021/01/31 01:48:08;;;;;;;38.78;23.12;;;;;;;-2.97;96.02;97813.81;1719265;82;21026;-49
2021/01/31 01:50:52;;;;;;;;;;;;;;;-2.98;95.87;97829.22;1719446;81;21112;-48
2021/01/31 01:53:22;;;;;;;37.15;22.85;;;;;;;-3.03;95.66;97825.39;1722359;81;21891;-48
2021/01/31 01:56:04;;;;;;;39.50;22.45;;;;;;;-3.05;95.64;97834.23;1719988;81;21435;-51
2021/01/31 01:58:32;;;;;;;38.30;22.73;;;;;;;-3.07;95.71;97833.41;1719588;82;20994;-51
2021/01/31 02:01:01;;;;;;;38.65;22.40;;;;;;;-3.07;95.82;97851.87;1720590;81;21148;-51
2021/01/31 02:03:32;;;;;;;34.92;22.45;;;;;;;-3.06;95.88;97846.55;1719127;81;21006;-50
2021/01/31 02:06:04;;;;;;;;;;;;;;;-3.05;95.82;97843.45;1727218;81;22265;-51
2021/01/31 02:08:32;;;;;;;31.97;15.53;;;;;;;-3.04;95.65;97857.05;1721881;81;20681;-51
2021/01/31 02:11:00;;;;;;;33.18;17.80;;;;;;;-3.07;95.61;97869.87;1721364;80;21198;-51
2021/01/31 02:13:29;;;;;;;29.52;14.70;;;;;;;-3.06;95.57;97861.50;1727544;80;21117;-51
2021/01/31 02:19:04;;;;;;;26.37;16.80;;;;;;;-3.03;95.30;97882.52;1856534;74;22592;-51
2021/01/31 02:22:03;;;;;;;25.60;17.60;;;;;;;-3.09;95.25;97889.25;1796254;75;21028;-51
2021/01/31 02:25:05;;;;;;;26.30;15.05;;;;;;;-3.11;95.37;97879.20;1828355;75;21439;-48
2021/01/31 02:27:59;;;;;;;24.67;16.20;;;;;;;-3.09;95.39;97890.56;1830565;75;20993;-47
2021/01/31 02:30:41;;;;;;;22.50;14.73;;;;;;;-3.12;95.44;97888.03;1833823;77;21580;-48
2021/01/31 02:33:41;;;;;;;20.70;13.68;;;;;;;-3.06;95.53;97905.00;1820518;76;23273;-48
2021/01/31 02:36:15;;;;;;;26.55;15.00;;;;;;;-3.15;95.55;97911.36;1810213;78;21076;-48
2021/01/31 02:38:51;;;;;;;23.10;14.33;;;;;;;-3.16;95.69;97914.45;1816621;78;21335;-48
2021/01/31 02:41:45;;;;;;;20.65;13.88;;;;;;;-3.19;95.71;97915.86;1806557;78;20990;-47
2021/01/31 02:44:16;;;;;;;20.88;13.13;;;;;;;-3.21;95.83;97926.88;1811409;78;20994;-48
2021/01/31 02:46:59;;;;;;;21.45;13.43;;;;;;;-3.20;95.94;97923.33;1803252;78;20982;-48
2021/01/31 02:49:31;;;;;;;18.07;11.97;;;;;;;-3.18;95.84;97938.67;1738507;80;20969;-48
2021/01/31 02:52:16;;;;;;;22.13;12.45;;;;;;;-3.17;95.79;97957.53;1802186;78;21139;-52
2021/01/31 02:55:18;;;;;;;20.85;12.55;;;;;;;-3.19;95.79;97958.03;1797909;78;21358;-47
2021/01/31 02:57:51;;;;;;;18.50;12.45;;;;;;;-3.22;95.88;97962.05;1807885;77;21503;-48
2021/01/31 03:00:28;;;;;;;17.37;12.03;;;;;;;-3.24;95.96;97967.82;1795771;78;21029;-49
2021/01/31 03:03:13;;;;;;;16.70;11.25;;;;;;;-3.23;95.99;97972.19;1805901;78;21105;-47
2021/01/31 03:05:47;;;;;;;15.18;9.95;;;;;;;-3.22;95.90;97967.32;1799768;78;21177;-48
2021/01/31 03:08:19;;;;;;;15.00;10.35;;;;;;;-3.21;95.84;97973.45;1801689;78;20986;-48
2021/01/31 03:10:53;;;;;;;14.33;9.95;;;;;;;-3.20;95.83;97989.22;1804848;78;21360;-48
2021/01/31 03:13:50;;;;;;;19.40;11.03;;;;;;;-3.19;95.76;97988.34;1800749;78;21698;-49
2021/01/31 03:16:35;;;;;;;15.72;10.88;;;;;;;-3.18;95.82;98003.25;1808174;78;21148;-48
2021/01/31 03:19:28;;;;;;;14.87;9.68;;;;;;;-3.17;95.91;98018.61;1800865;78;21489;-49
2021/01/31 03:21:58;;;;;;;16.25;10.13;;;;;;;-3.16;95.96;98022.52;1802528;78;21100;-48
2021/01/31 03:24:38;;;;;;;14.28;9.55;;;;;;;-3.16;95.96;98040.98;1800104;78;21117;-47
2021/01/31 03:27:33;;;;;;;13.22;9.48;;;;;;;-3.06;96.00;98047.36;1858265;75;23446;-46
2021/01/31 03:30:03;;;;;;;15.15;10.53;;;;;;;-3.10;95.99;98054.92;1771439;78;20941;-48
2021/01/31 03:32:34;;;;;;;13.43;10.15;;;;;;;-3.08;96.00;98070.27;1793719;77;22269;-48
2021/01/31 03:35:12;;;;;;;14.98;9.50;;;;;;;-3.10;95.96;98074.23;1792609;78;21128;-48
2021/01/31 03:37:47;;;;;;;17.07;9.98;;;;;;;-3.11;96.06;98083.51;1791800;77;20930;-46
2021/01/31 03:40:16;;;;;;;15.40;10.32;;;;;;;-3.12;96.19;98093.19;1764700;78;21796;-46
2021/01/31 03:42:45;;;;;;;18.45;11.20;;;;;;;-3.10;96.21;98090.51;1789917;78;20983;-45
2021/01/31 03:45:14;;;;;;;15.20;9.90;;;;;;;-3.11;96.20;98095.37;1767081;78;22269;-46
2021/01/31 03:47:59;;;;;;;16.45;11.15;;;;;;;-3.07;96.29;98102.31;1795001;78;21560;-46
2021/01/31 03:50:27;;;;;;;15.23;9.80;;;;;;;-3.10;96.12;98102.38;1743764;78;21485;-46
2021/01/31 03:52:56;;;;;;;16.17;10.60;;;;;;;-3.14;96.12;98111.24;1791311;77;21587;-45
2021/01/31 03:55:24;;;;;;;16.07;10.38;;;;;;;-3.18;96.18;98116.59;1791856;78;21037;-45
2021/01/31 03:58:01;;;;;;;18.77;12.00;;;;;;;-3.20;96.24;98113.11;1792424;78;22284;-46
2021/01/31 04:00:32;;;;;;;16.65;10.30;;;;;;;-3.21;96.26;98119.29;1791139;78;21005;-46
2021/01/31 04:03:05;;;;;;;17.67;11.20;;;;;;;-3.21;96.33;98126.33;1771204;78;21021;-46
2021/01/31 04:05:49;;;;;;;21.45;12.90;;;;;;;-3.17;96.33;98120.97;1832594;76;22657;-47
2021/01/31 04:08:17;;;;;;;21.55;11.80;;;;;;;-3.23;96.31;98142.19;1748897;79;21028;-47
2021/01/31 04:10:45;;;;;;;17.15;11.70;;;;;;;-3.22;96.38;98145.69;1748983;80;21368;-45
2021/01/31 04:13:14;;;;;;;19.82;11.25;;;;;;;-3.21;96.39;98164.09;1777152;79;21030;-44
2021/01/31 04:15:49;;;;;;;18.82;11.88;;;;;;;-3.20;96.37;98168.92;1746768;80;21018;-45
2021/01/31 04:18:18;;;;;;;15.98;11.15;;;;;;;-3.19;96.29;98170.23;1718167;80;21014;-45
2021/01/31 04:20:48;;;;;;;14.80;10.38;;;;;;;-3.17;96.16;98185.55;1757464;80;21562;-45
2021/01/31 04:23:15;;;;;;;16.70;9.78;;;;;;;-3.14;96.13;98189.01;1749093;79;21363;-44
2021/01/31 04:25:44;;;;;;;17.05;10.63;;;;;;;-3.11;95.56;98198.19;1751811;80;21000;-46
2021/01/31 04:28:19;;;;;;;16.10;10.45;;;;;;;-3.08;95.31;98192.86;1748362;79;21005;-46
2021/01/31 04:30:47;;;;;;;16.23;10.95;;;;;;;-3.08;95.30;98199.45;1748762;80;21505;-45
2021/01/31 04:33:15;;;;;;;15.13;10.35;;;;;;;-3.05;95.39;98200.69;1747911;79;21040;-45
2021/01/31 04:35:43;;;;;;;16.10;11.20;;;;;;;-3.04;95.14;98208.56;1775867;79;21372;-45
2021/01/31 04:38:11;;;;;;;21.45;11.65;;;;;;;-3.01;95.11;98219.51;1775262;78;21136;-45
2021/01/31 04:40:39;;;;;;;16.70;11.10;;;;;;;-3.01;94.97;98223.02;1748558;79;21189;-46
2021/01/31 04:43:11;;;;;;;15.40;10.82;;;;;;;-3.02;94.75;98224.38;1749847;80;21181;-45
2021/01/31 04:45:39;;;;;;;17.15;10.88;;;;;;;-3.00;94.68;98226.52;1749555;80;21744;-47
2021/01/31 04:48:28;;;;;;;16.45;11.12;;;;;;;-3.00;94.74;98243.20;1753256;79;21363;-46
2021/01/31 04:51:18;;;;;;;19.55;11.48;;;;;;;-2.92;94.69;98247.02;1786035;76;22802;-46
2021/01/31 04:54:15;;;;;;;17.75;11.83;;;;;;;-2.96;94.67;98254.56;1751835;79;21072;-46
2021/01/31 04:57:19;;;;;;;19.90;12.18;;;;;;;-2.94;94.71;98268.58;1749923;78;21493;-46
2021/01/31 04:59:55;;;;;;;19.02;11.45;;;;;;;-2.88;94.80;98267.12;1839053;75;22793;-45
2021/01/31 05:02:30;;;;;;;21.35;12.80;;;;;;;-2.92;94.81;98278.66;1787553;77;21510;-44
2021/01/31 05:05:00;;;;;;;21.33;12.53;;;;;;;-2.91;94.83;98276.44;1756804;78;22233;-45
2021/01/31 05:07:59;;;;;;;18.57;10.95;;;;;;;-2.90;94.82;98290.91;1754422;78;21014;-45
2021/01/31 05:10:27;;;;;;;19.25;12.25;;;;;;;-2.88;94.87;98290.00;1745028;80;20993;-45
2021/01/31 05:13:21;;;;;;;20.15;12.43;;;;;;;-2.87;94.69;98298.36;1745698;79;20993;-45
2021/01/31 05:16:03;;;;;;;20.55;14.28;;;;;;;-2.87;94.67;98295.27;1744981;79;21001;-45
2021/01/31 05:18:31;;;;;;;;;;;;;;;-2.87;94.62;98299.22;1749535;79;22057;-45
2021/01/31 05:21:08;;;;;;;19.05;12.03;;;;;;;-2.86;94.50;98304.91;1746399;79;20158;-46
2021/01/31 05:23:43;;;;;;;23.38;14.28;;;;;;;-2.86;94.41;98304.91;1747672;79;21037;-46
2021/01/31 05:26:11;;;;;;;21.60;13.45;;;;;;;-2.86;94.38;98318.09;1749843;79;21565;-47
2021/01/31 05:28:42;;;;;;;26.57;14.38;;;;;;;-2.82;94.22;98326.80;1745920;79;21132;-45
2021/01/31 05:31:13;;;;;;;21.82;13.08;;;;;;;-2.81;94.02;98336.02;1745106;79;21351;-45
2021/01/31 05:33:52;;;;;;;21.65;14.95;;;;;;;-2.80;93.88;98344.34;1745216;80;21601;-46
2021/01/31 05:36:31;;;;;;;21.57;14.60;;;;;;;-2.75;93.70;98334.58;1777681;77;32000;-46
2021/01/31 05:38:59;;;;;;;24.53;14.67;;;;;;;-2.76;93.35;98356.59;1785725;78;21012;-46
2021/01/31 05:41:35;;;;;;;24.40;15.38;;;;;;;-2.75;93.31;98356.13;1765361;78;21353;-45
2021/01/31 05:44:16;;;;;;;23.57;14.15;;;;;;;-2.77;93.18;98370.69;1768907;78;21005;-45
2021/01/31 05:46:54;;;;;;;24.40;15.20;;;;;;;-2.74;93.42;98371.92;1766167;78;21023;-46
2021/01/31 05:49:42;;;;;;;22.62;13.60;;;;;;;-2.71;93.29;98383.75;1768608;78;21143;-46
2021/01/31 05:52:24;;;;;;;22.80;13.45;;;;;;;-2.71;92.95;98378.47;1766276;78;20996;-47
2021/01/31 05:54:53;;;;;;;26.30;14.95;;;;;;;-2.71;92.71;98378.47;1768290;78;21321;-46
2021/01/31 05:57:32;;;;;;;21.23;13.93;;;;;;;-2.71;92.67;98392.12;1739322;78;21001;-45
2021/01/31 06:00:03;;;;;;;23.92;14.83;;;;;;;-2.72;92.65;98395.17;1767425;78;21545;-45
2021/01/31 06:02:32;;;;;;;25.23;14.53;;;;;;;-2.74;92.51;98398.30;1738065;80;22039;-45
2021/01/31 06:05:20;;;;;;;25.72;15.43;;;;;;;-2.75;92.59;98399.20;1763854;78;21162;-46
2021/01/31 06:08:01;;;;;;;23.10;14.75;;;;;;;-2.74;92.73;98396.98;1764309;78;22199;-45
2021/01/31 06:10:35;;;;;;;24.98;15.05;;;;;;;-2.71;92.62;98398.26;1764826;78;21041;-46
2021/01/31 06:13:11;;;;;;;25.60;15.20;;;;;;;-2.70;92.57;98398.67;1768530;78;21112;-46
2021/01/31 06:15:46;;;;;;;24.65;14.25;;;;;;;-2.69;92.49;98405.69;1764276;78;20969;-46
2021/01/31 06:18:36;;;;;;;24.55;15.10;;;;;;;-2.58;92.57;98417.80;1812754;76;22666;-46
2021/01/31 06:21:11;;;;;;;28.50;16.10;;;;;;;-2.58;92.59;98423.08;1775434;79;20981;-45
2021/01/31 06:23:52;;;;;;;26.97;15.85;;;;;;;-2.45;92.57;98432.48;1816142;75;22834;-46
2021/01/31 06:26:32;;;;;;;25.05;14.53;;;;;;;-2.44;92.17;98439.53;1855758;75;22696;-46
2021/01/31 06:29:40;;;;;;;29.05;16.80;;;;;;;-2.48;92.19;98448.41;1825308;76;21254;-46
2021/01/31 06:32:24;;;;;;;29.55;15.15;;;;;;;-2.44;92.21;98444.81;1831288;75;21461;-45
2021/01/31 06:34:55;;;;;;;23.35;14.90;;;;;;;-2.42;91.95;98454.42;1829761;76;21561;-46
2021/01/31 06:37:30;;;;;;;;;;;;;;;-2.40;91.90;98462.30;1836330;76;20965;-46
2021/01/31 06:40:38;;;;;;;27.52;14.30;;;;;;;-2.36;91.98;98453.44;1833446;75;20269;-46
2021/01/31 06:43:37;;;;;;;25.70;15.00;;;;;;;-2.36;91.72;98460.03;1840385;76;20989;-46
2021/01/31 06:46:10;;;;;;;27.32;16.25;;;;;;;-2.36;91.71;98466.63;1834376;76;21422;-48
2021/01/31 06:49:19;;;;;;;27.32;16.17;;;;;;;-2.35;91.84;98465.73;1839376;76;21490;-46
2021/01/31 06:52:02;;;;;;;31.30;17.55;;;;;;;-2.33;91.84;98469.23;1837478;75;21052;-46
2021/01/31 06:54:53;;;;;;;27.73;16.60;;;;;;;-2.33;92.01;98467.05;1838659;76;21053;-47
2021/01/31 06:58:06;;;;;;;28.12;16.30;;;;;;;-2.34;92.20;98470.14;1843946;75;21017;-47
2021/01/31 07:00:53;;;;;;;30.30;16.62;;;;;;;-2.35;92.46;98473.64;1789777;78;21170;-47
2021/01/31 07:03:51;;;;;;;31.00;17.73;;;;;;;-2.32;92.65;98472.28;1809603;76;23372;-45
2021/01/31 07:06:37;;;;;;;32.17;16.23;;;;;;;-2.34;92.77;98482.02;1752299;79;21519;-46
2021/01/31 07:09:38;;;;;;;26.80;14.25;;;;;;;-2.33;92.74;98486.39;1751868;79;22277;-53
2021/01/31 07:12:14;;;;;;;31.57;18.80;;;;;;;-2.33;92.59;98482.42;1752117;79;21124;-46
2021/01/31 07:15:08;;;;;;;30.10;18.20;;;;;;;-2.29;92.60;98484.12;1758686;79;20962;-48
2021/01/31 07:17:58;;;;;;;32.03;17.65;;;;;;;-2.29;92.35;98485.44;1757139;79;21009;-47
2021/01/31 07:20:31;;;;;;;34.78;17.50;;;;;;;-2.26;92.36;98506.48;1754955;79;21108;-47
2021/01/31 07:23:29;;;;;;;30.82;16.48;;;;;;;-2.19;92.14;98497.98;1858296;74;22757;-47
2021/01/31 07:26:00;;;;;;;33.33;17.73;;;;;;;-2.23;91.86;98513.04;1811495;76;21084;-47
2021/01/31 07:28:38;;;;;;;31.90;17.42;;;;;;;-2.22;91.78;98517.41;1800066;77;21208;-48
2021/01/31 07:31:23;;;;;;;35.20;19.15;;;;;;;-2.20;91.53;98526.16;1800718;77;21005;-47
2021/01/31 07:34:19;;;;;;;32.13;16.20;;;;;;;-2.09;91.68;98530.37;1822424;76;22804;-48
2021/01/31 07:37:13;;;;;;;33.50;17.32;;;;;;;-2.06;91.37;98532.97;1812879;77;21140;-48
2021/01/31 07:40:08;;;;;;;;;;;;;;;-2.05;90.83;98545.27;1811163;77;21361;-49
2021/01/31 07:42:38;;;;;;;30.40;16.25;;;;;;;-2.03;90.43;98551.38;1809433;77;20176;-48
2021/01/31 07:45:13;;;;;;;26.65;14.55;;;;;;;-1.99;90.04;98555.71;1779701;79;21419;-48
2021/01/31 07:47:41;;;;;;;27.30;14.53;;;;;;;-1.97;89.03;98567.11;1812816;77;21033;-48
2021/01/31 07:50:13;;;;;;;28.57;15.70;;;;;;;-1.96;88.30;98568.87;1811183;77;21503;-51
2021/01/31 07:52:55;;;;;;;27.32;15.78;;;;;;;-1.91;87.62;98572.30;1848071;75;22711;-48
2021/01/31 07:55:29;;;;;;;26.02;14.40;;;;;;;-1.92;87.53;98586.38;1816302;77;21032;-48
2021/01/31 07:58:06;;;;;;;31.50;17.80;;;;;;;-1.88;87.58;98586.75;1814897;77;21415;-48
2021/01/31 08:00:44;;;;;;;29.90;17.40;;;;;;;-1.86;87.18;98591.58;1813590;77;21103;-48
2021/01/31 08:03:29;;;;;;;31.42;14.80;;;;;;;-1.83;87.10;98598.10;1816133;77;20954;-48
2021/01/31 08:06:01;;;;;;;29.50;14.90;;;;;;;-1.79;86.49;98614.33;1815636;77;20976;-49
2021/01/31 08:08:48;;;;;;;29.42;15.32;;;;;;;-1.79;86.31;98611.69;1815767;77;20918;-47
2021/01/31 08:11:22;;;;;;;27.60;15.53;;;;;;;-1.78;85.73;98623.13;1812431;77;21264;-49
2021/01/31 08:13:51;;;;;;;25.82;14.93;;;;;;;-1.75;85.76;98625.27;1816639;77;21494;-47
2021/01/31 08:16:43;;;;;;;24.55;14.60;;;;;;;-1.73;85.38;98635.80;1813453;77;21120;-49
2021/01/31 08:19:22;;;;;;;21.80;13.22;;;;;;;-1.71;84.80;98644.10;1816663;77;21116;-48
2021/01/31 08:22:05;;;;;;;21.95;13.65;;;;;;;-1.66;85.02;98639.60;1818631;77;21087;-49
2021/01/31 08:25:10;;;;;;;26.57;13.38;;;;;;;-1.62;84.29;98643.94;1786312;78;21149;-47
2021/01/31 08:27:44;;;;;;;29.20;15.05;;;;;;;-1.61;83.84;98658.89;1817244;77;21155;-46
2021/01/31 08:30:37;;;;;;;24.52;12.80;;;;;;;-1.59;83.50;98653.14;1818706;77;21120;-48
2021/01/31 08:33:07;;;;;;;26.48;14.00;;;;;;;-1.63;82.56;98660.70;1815895;77;21127;-49
2021/01/31 08:35:50;;;;;;;24.40;13.88;;;;;;;-1.62;82.32;98659.80;1700803;81;21178;-48
2021/01/31 08:41:04;;;;;;;23.83;13.88;;;;;;;-1.48;82.08;98662.19;1782210;78;22759;-52
2021/01/31 08:43:39;;;;;;;27.90;15.15;;;;;;;-1.48;80.85;98666.61;1774162;79;20989;-47
2021/01/31 08:46:18;;;;;;;23.65;13.88;;;;;;;-1.46;81.06;98662.15;1775564;79;22180;-49
2021/01/31 08:48:57;;;;;;;23.02;13.40;;;;;;;-1.44;81.37;98678.42;1775094;79;20989;-50
2021/01/31 08:51:30;;;;;;;23.65;12.60;;;;;;;-1.44;81.07;98674.87;1775083;79;20981;-47
2021/01/31 08:54:20;;;;;;;20.88;11.95;;;;;;;-1.41;80.94;98686.73;1772023;79;21645;-49
2021/01/31 08:57:09;;;;;;;21.87;12.30;;;;;;;-1.40;80.47;98703.88;1774697;79;21503;-48
2021/01/31 09:02:51;;;;;;;23.10;12.80;;;;;;;-1.36;78.73;98698.09;1788968;78;22643;-48
2021/01/31 09:05:19;;;;;;;23.00;13.13;;;;;;;-1.43;77.71;98704.41;1764717;78;21061;-50
2021/01/31 09:07:51;;;;;;;24.52;13.88;;;;;;;-1.41;78.20;98705.23;1756503;79;21524;-49
2021/01/31 09:10:33;;;;;;;22.27;14.05;;;;;;;-1.39;78.35;98700.78;1761369;80;21058;-51
2021/01/31 09:13:33;;;;;;;24.95;13.72;;;;;;;-1.37;78.35;98705.61;1696309;81;21571;-50
2021/01/31 09:16:25;;;;;;;21.93;12.78;;;;;;;-1.34;78.14;98702.43;1701411;81;21914;-51
2021/01/31 09:19:19;;;;;;;22.95;11.70;;;;;;;-1.36;77.92;98712.63;1702094;81;21122;-49
2021/01/31 09:21:47;;;;;;;26.42;13.45;;;;;;;-1.39;78.05;98711.35;1724715;80;21192;-49
2021/01/31 09:24:18;;;;;;;25.45;13.43;;;;;;;-1.42;78.33;98718.04;1695945;82;21220;-46
2021/01/31 09:26:58;;;;;;;22.77;12.73;;;;;;;-1.40;78.61;98718.88;1670043;81;20972;-48
2021/01/31 09:29:29;;;;;;;24.75;12.05;;;;;;;-1.37;78.57;98714.86;1704177;81;21482;-48
2021/01/31 09:32:07;;;;;;;23.87;14.30;;;;;;;-1.30;78.57;98720.89;1704778;81;21139;-48
2021/01/31 09:34:43;;;;;;;22.60;12.18;;;;;;;-1.15;78.77;98730.73;1799410;78;22785;-48
2021/01/31 09:37:22;;;;;;;23.80;13.28;;;;;;;-1.12;78.37;98739.94;1755294;80;20966;-47
2021/01/31 09:39:50;;;;;;;22.13;13.65;;;;;;;-1.06;77.27;98753.05;1751215;80;21993;-48
2021/01/31 09:42:19;;;;;;;21.93;12.23;;;;;;;-0.98;77.00;98746.72;1751764;80;21030;-49
2021/01/31 09:44:51;;;;;;;22.00;13.03;;;;;;;-0.91;76.56;98750.97;1749743;80;21057;-50
2021/01/31 09:47:20;;;;;;;19.10;11.57;;;;;;;-0.88;76.27;98761.51;1749989;80;20979;-49
2021/01/31 09:49:57;;;;;;;18.57;10.88;;;;;;;-0.87;75.50;98758.82;1747593;80;21006;-47
2021/01/31 09:52:25;;;;;;;20.55;10.53;;;;;;;-0.87;74.67;98761.47;1748832;80;21213;-48
2021/01/31 09:54:54;;;;;;;18.35;11.22;;;;;;;-0.83;74.63;98770.23;1747840;80;21022;-49
2021/01/31 09:57:26;;;;;;;21.10;11.83;;;;;;;-0.83;74.67;98764.48;1746865;80;21119;-47
2021/01/31 10:00:07;;;;;;;18.45;10.10;;;;;;;-0.83;74.82;98767.58;1753204;80;21124;-51
2021/01/31 10:02:37;;;;;;;18.50;9.90;;;;;;;-0.84;74.25;98768.49;1747925;80;21151;-50
2021/01/31 10:05:11;;;;;;;15.90;10.03;;;;;;;-0.88;73.72;98769.45;1754836;80;21478;-51
2021/01/31 10:07:44;;;;;;;16.90;8.88;;;;;;;-0.91;73.53;98778.30;1748448;80;21144;-51
2021/01/31 10:10:36;;;;;;;19.02;11.03;;;;;;;-0.91;73.05;98780.95;1720254;80;21097;-50
2021/01/31 10:13:37;;;;;;;19.45;10.95;;;;;;;-0.92;73.01;98786.28;1748139;80;21065;-50
2021/01/31 10:16:20;;;;;;;20.67;11.07;;;;;;;-0.90;73.30;98787.14;1751623;80;20986;-48
2021/01/31 10:18:48;;;;;;;19.50;9.60;;;;;;;-0.84;72.87;98793.63;1750931;80;21379;-48
2021/01/31 10:21:35;;;;;;;20.02;11.50;;;;;;;-0.78;72.20;98784.24;1715783;80;21547;-50
2021/01/31 10:24:29;;;;;;;16.42;8.98;;;;;;;-0.77;71.34;98785.98;1751857;80;20972;-48
2021/01/31 10:27:24;;;;;;;19.35;10.15;;;;;;;-0.78;70.57;98794.83;1749978;80;20978;-48
2021/01/31 10:29:53;;;;;;;15.50;8.43;;;;;;;-0.78;69.09;98796.16;1749661;80;21136;-48
2021/01/31 10:32:28;;;;;;;16.30;8.78;;;;;;;-0.78;68.69;98786.89;1749589;80;21393;-47
2021/01/31 10:34:56;;;;;;;14.50;7.87;;;;;;;-0.72;69.02;98792.05;1741365;80;21026;-47
2021/01/31 10:37:36;;;;;;;17.00;8.50;;;;;;;-0.67;69.24;98802.09;1734285;81;21694;-55
2021/01/31 10:40:06;;;;;;;17.43;9.20;;;;;;;-0.62;69.40;98801.55;1739435;80;21097;-48
2021/01/31 10:42:35;;;;;;;14.10;8.18;;;;;;;-0.54;69.03;98812.84;1740036;81;21260;-47
2021/01/31 10:45:11;;;;;;;15.50;8.28;;;;;;;-0.45;68.96;98805.63;1739691;81;21376;-52
2021/01/31 10:47:39;;;;;;;13.48;8.35;;;;;;;-0.32;68.81;98817.69;1739113;81;21550;-48
2021/01/31 10:50:09;;;;;;;13.62;7.78;;;;;;;-0.24;68.71;98805.16;1737107;81;21160;-49
2021/01/31 10:52:37;;;;;;;14.33;5.37;;;;;;;-0.17;67.83;98824.43;1740864;81;21157;-50
2021/01/31 10:55:07;;;;;;;12.20;6.83;;;;;;;-0.18;66.92;98823.56;1739804;81;21535;-50
2021/01/31 10:57:35;;;;;;;12.73;6.83;;;;;;;-0.23;66.80;98824.11;1740689;81;21254;-49
2021/01/31 11:00:08;;;;;;;12.80;7.00;;;;;;;-0.23;67.21;98832.06;1738544;81;21152;-50
2021/01/31 11:02:36;;;;;;;10.68;6.30;;;;;;;-0.24;66.82;98829.00;1739606;81;21018;-50
2021/01/31 11:05:06;;;;;;;8.55;6.42;;;;;;;-0.21;66.60;98826.30;1738647;81;21168;-50
2021/01/31 11:07:34;;;;;;;10.08;6.40;;;;;;;-0.21;66.31;98831.59;1740768;80;21109;-49
2021/01/31 11:10:04;;;;;;;9.43;5.95;;;;;;;-0.21;65.77;98834.25;1740099;81;22023;-48
2021/01/31 11:12:34;;;;;;;14.35;6.12;;;;;;;-0.22;65.38;98838.23;1738198;81;21133;-50
2021/01/31 11:15:02;;;;;;;9.00;5.65;;;;;;;-0.24;65.21;98836.95;1738184;81;21009;-49
2021/01/31 11:17:30;;;;;;;9.65;5.60;;;;;;;-0.31;64.84;98839.32;1738735;81;21149;-50
2021/01/31 11:19:58;;;;;;;7.92;5.45;;;;;;;-0.33;64.93;98843.76;1737669;81;21538;-49
2021/01/31 11:22:26;;;;;;;12.50;5.80;;;;;;;-0.34;65.08;98848.64;1739331;80;21385;-51
2021/01/31 11:24:54;;;;;;;11.25;5.85;;;;;;;-0.37;64.63;98856.67;1736818;81;21136;-50
2021/01/31 11:27:22;;;;;;;8.40;5.80;;;;;;;-0.43;64.82;98863.39;1743342;81;21610;-48
2021/01/31 11:29:50;;;;;;;11.48;7.15;;;;;;;-0.46;64.78;98860.82;1738248;81;21117;-50
2021/01/31 11:32:18;;;;;;;12.07;6.17;;;;;;;-0.45;65.38;98861.23;1741773;81;21657;-49
2021/01/31 11:34:47;;;;;;;11.40;6.25;;;;;;;-0.43;65.27;98863.39;1741100;81;21392;-51
2021/01/31 11:37:15;;;;;;;9.30;6.17;;;;;;;-0.39;65.61;98874.34;1736527;80;21546;-49
2021/01/31 11:39:42;;;;;;;13.62;6.85;;;;;;;-0.39;65.52;98871.70;1736087;80;21121;-47
2021/01/31 11:42:11;;;;;;;10.95;6.58;;;;;;;-0.40;65.21;98865.98;1735058;81;21597;-45
2021/01/31 11:44:39;;;;;;;9.55;5.92;;;;;;;-0.36;65.43;98872.52;1736943;81;21605;-46
2021/01/31 11:47:07;;;;;;;11.45;6.47;;;;;;;-0.34;64.95;98875.13;1736248;81;21448;-46
2021/01/31 11:49:35;;;;;;;8.80;5.37;;;;;;;-0.31;65.02;98871.11;1739236;81;21125;-48
2021/01/31 11:52:04;;;;;;;8.65;5.20;;;;;;;-0.24;64.34;98884.63;1735216;80;21149;-47
2021/01/31 11:54:32;;;;;;;7.90;4.75;;;;;;;-0.25;63.29;98878.92;1737493;80;21149;-46
2021/01/31 11:57:00;;;;;;;8.55;5.37;;;;;;;-0.28;62.24;98881.62;1737555;81;21581;-45
2021/01/31 11:59:28;;;;;;;8.38;5.50;;;;;;;-0.31;62.65;98881.70;1740455;81;21448;-45
2021/01/31 12:01:56;;;;;;;10.88;4.97;;;;;;;-0.30;62.18;98883.44;1737325;81;21161;-43
2021/01/31 12:04:24;;;;;;;9.80;4.85;;;;;;;-0.36;62.13;98883.11;1736611;81;21006;-46
2021/01/31 12:06:52;;;;;;;9.50;4.90;;;;;;;-0.41;61.75;98884.11;1677399;83;21006;-46
2021/01/31 12:09:20;;;;;;;9.18;5.80;;;;;;;-0.48;61.58;98888.67;1692212;83;21706;-47
2021/01/31 12:11:49;;;;;;;8.33;5.33;;;;;;;-0.50;62.08;98888.26;1691338;83;21223;-45
2021/01/31 12:14:17;;;;;;;7.67;4.92;;;;;;;-0.52;62.27;98891.41;1741826;81;21738;-47